createdAt,value
2022-11-22T00:00:21.284Z,98395.88
2022-11-22T00:03:43.247Z,98397.29
2022-11-22T00:07:04.833Z,98394.34
2022-11-22T00:10:08.118Z,98396.28
2022-11-22T00:13:09.940Z,98395.34
2022-11-22T00:16:11.545Z,98389.46
2022-11-22T00:19:13.303Z,98386.88
2022-11-22T00:22:15.633Z,98389.52
2022-11-22T00:25:17.355Z,98385.30
2022-11-22T00:28:22.217Z,98383.59
2022-11-22T00:31:24.116Z,98384.04
2022-11-22T00:34:26.018Z,98385.36
2022-11-22T00:37:27.730Z,98389.61
2022-11-22T00:40:29.411Z,98392.30
2022-11-22T00:43:31.604Z,98400.33
2022-11-22T00:46:33.312Z,98406.51
2022-11-22T00:49:34.932Z,98407.86
2022-11-22T00:52:36.579Z,98408.48
2022-11-22T00:55:38.332Z,98406.91
2022-11-22T00:58:39.946Z,98405.59
2022-11-22T01:01:41.794Z,98407.67
2022-11-22T01:04:43.673Z,98408.58
2022-11-22T01:07:45.541Z,98411.15
2022-11-22T01:10:47.147Z,98417.79
2022-11-22T01:13:48.882Z,98419.58
2022-11-22T01:16:50.599Z,98416.33
2022-11-22T01:19:52.596Z,98419.08
2022-11-22T01:22:54.165Z,98421.41
2022-11-22T01:25:56.030Z,98422.80
2022-11-22T01:28:57.538Z,98432.59
2022-11-22T01:31:59.462Z,98433.75
2022-11-22T01:35:00.994Z,98435.21
2022-11-22T01:38:03.173Z,98433.84
2022-11-22T01:41:04.947Z,98434.06
2022-11-22T01:44:20.371Z,98435.13
2022-11-22T01:47:24.895Z,98445.88
2022-11-22T01:50:28.200Z,98452.35
2022-11-22T01:53:34.492Z,98446.86
2022-11-22T01:56:36.804Z,98441.40
2022-11-22T01:59:42.471Z,98442.77
2022-11-22T02:02:51.813Z,98446.83
2022-11-22T02:05:53.919Z,98445.61
2022-11-22T02:09:02.024Z,98441.15
2022-11-22T02:12:05.548Z,98438.90
2022-11-22T02:15:08.200Z,98442.42
2022-11-22T02:18:09.942Z,98443.45
2022-11-22T02:21:12.028Z,98443.50
2022-11-22T02:24:20.176Z,98437.23
2022-11-22T02:27:23.129Z,98434.61
2022-11-22T02:30:25.100Z,98430.83
2022-11-22T02:33:26.998Z,98429.45
2022-11-22T02:36:28.872Z,98423.24
2022-11-22T02:39:31.892Z,98412.17
2022-11-22T02:42:34.024Z,98401.30
2022-11-22T02:45:35.826Z,98405.77
2022-11-22T02:48:42.058Z,98402.31
2022-11-22T02:51:43.909Z,98396.27
2022-11-22T02:54:46.200Z,98396.63
2022-11-22T02:57:47.994Z,98396.41
2022-11-22T03:00:49.655Z,98393.85
2022-11-22T03:03:51.312Z,98388.85
2022-11-22T03:06:57.769Z,98393.14
2022-11-22T03:09:59.813Z,98391.48
2022-11-22T03:13:01.582Z,98388.29
2022-11-22T03:16:03.297Z,98385.41
2022-11-22T03:19:04.937Z,98387.06
2022-11-22T03:22:06.756Z,98381.86
2022-11-22T03:25:08.491Z,98383.02
2022-11-22T03:28:10.150Z,98381.45
2022-11-22T03:31:12.124Z,98385.52
2022-11-22T03:34:14.259Z,98387.74
2022-11-22T03:37:16.060Z,98392.44
2022-11-22T03:40:17.703Z,98396.80
2022-11-22T03:43:19.494Z,98396.27
2022-11-22T03:46:21.171Z,98395.89
2022-11-22T03:49:22.986Z,98393.43
2022-11-22T03:52:24.768Z,98389.00
2022-11-22T03:55:26.502Z,98391.02
2022-11-22T03:58:28.478Z,98389.77
2022-11-22T04:01:30.265Z,98387.75
2022-11-22T04:04:31.915Z,98385.54
2022-11-22T04:07:33.815Z,98390.41
2022-11-22T04:10:35.540Z,98392.77
2022-11-22T04:13:55.973Z,98395.89
2022-11-22T04:16:57.720Z,98391.66
2022-11-22T04:20:18.388Z,98394.59
2022-11-22T04:23:22.223Z,98391.47
2022-11-22T04:26:23.780Z,98389.27
2022-11-22T04:29:25.636Z,98390.30
2022-11-22T04:32:45.674Z,98395.71
2022-11-22T04:35:51.219Z,98393.85
2022-11-22T04:38:52.919Z,98392.92
2022-11-22T04:42:14.697Z,98393.70
2022-11-22T04:45:16.765Z,98388.45
2022-11-22T04:48:18.655Z,98388.55
2022-11-22T04:51:39.297Z,98378.80
2022-11-22T04:54:40.858Z,98379.89
2022-11-22T04:57:42.534Z,98376.95
2022-11-22T05:00:44.474Z,98375.39
2022-11-22T05:03:46.326Z,98374.79
2022-11-22T05:06:47.986Z,98379.38
2022-11-22T05:09:49.825Z,98383.44
2022-11-22T05:12:51.566Z,98381.92
2022-11-22T05:15:53.382Z,98388.50
2022-11-22T05:19:00.921Z,98392.96
2022-11-22T05:22:02.664Z,98394.88
2022-11-22T05:25:04.601Z,98400.44
2022-11-22T05:28:06.473Z,98402.69
2022-11-22T05:31:09.925Z,98404.66
2022-11-22T05:34:11.592Z,98405.69
2022-11-22T05:37:13.398Z,98398.23
2022-11-22T05:40:15.343Z,98388.94
2022-11-22T05:43:17.107Z,98396.13
2022-11-22T05:46:24.734Z,98400.64
2022-11-22T05:49:27.306Z,98394.80
2022-11-22T05:52:29.206Z,98392.90
2022-11-22T05:55:30.897Z,98391.64
2022-11-22T05:58:32.794Z,98388.50
2022-11-22T06:01:34.574Z,98393.20
2022-11-22T06:04:39.388Z,98394.97
2022-11-22T06:07:41.040Z,98400.86
2022-11-22T06:10:42.757Z,98405.60
2022-11-22T06:13:45.725Z,98403.18
2022-11-22T06:16:47.332Z,98406.45
2022-11-22T06:19:48.985Z,98404.17
2022-11-22T06:22:50.691Z,98402.19
2022-11-22T06:25:59.344Z,98397.13
2022-11-22T06:29:01.015Z,98392.94
2022-11-22T06:32:04.009Z,98395.00
2022-11-22T06:35:06.368Z,98404.25
2022-11-22T06:38:08.277Z,98412.05
2022-11-22T06:41:12.194Z,98417.73
2022-11-22T06:44:13.952Z,98414.83
2022-11-22T06:47:17.592Z,98416.45
2022-11-22T06:50:21.891Z,98419.73
2022-11-22T06:53:45.775Z,98419.08
2022-11-22T06:56:45.761Z,98416.84
2022-11-22T06:59:47.267Z,98416.22
2022-11-22T07:02:49.032Z,98413.15
2022-11-22T07:05:51.631Z,98418.75
2022-11-22T07:08:53.540Z,98412.61
2022-11-22T07:11:55.355Z,98411.70
2022-11-22T07:14:56.975Z,98409.90
2022-11-22T07:17:58.635Z,98410.83
2022-11-22T07:21:14.701Z,98408.38
2022-11-22T07:24:16.647Z,98415.59
2022-11-22T07:27:18.285Z,98409.91
2022-11-22T07:30:20.253Z,98409.10
2022-11-22T07:33:22.105Z,98415.60
2022-11-22T07:36:24.324Z,98420.24
2022-11-22T07:39:25.886Z,98421.13
2022-11-22T07:42:27.571Z,98419.98
2022-11-22T07:45:29.205Z,98427.27
2022-11-22T07:48:30.807Z,98432.66
2022-11-22T07:51:32.566Z,98441.46
2022-11-22T07:54:34.084Z,98439.98
2022-11-22T07:57:36.040Z,98439.50
2022-11-22T08:00:37.843Z,98441.13
2022-11-22T08:03:39.693Z,98442.77
2022-11-22T08:06:41.729Z,98439.77
2022-11-22T08:09:43.469Z,98434.00
2022-11-22T08:12:45.046Z,98428.83
2022-11-22T08:15:49.742Z,98427.61
2022-11-22T08:18:51.997Z,98420.22
2022-11-22T08:21:58.468Z,98417.50
2022-11-22T08:25:00.627Z,98424.62
2022-11-22T08:28:02.276Z,98435.20
2022-11-22T08:31:08.553Z,98432.30
2022-11-22T08:34:10.424Z,98426.94
2022-11-22T08:37:12.292Z,98425.61
2022-11-22T08:40:14.053Z,98429.41
2022-11-22T08:43:15.714Z,98425.56
2022-11-22T08:46:18.185Z,98433.77
2022-11-22T08:49:19.966Z,98440.66
2022-11-22T08:52:21.728Z,98445.82
2022-11-22T08:55:23.841Z,98444.55
2022-11-22T08:58:25.674Z,98448.39
2022-11-22T09:01:27.401Z,98456.01
2022-11-22T09:04:29.345Z,98457.28
2022-11-22T09:10:52.767Z,98437.46
2022-11-22T09:13:55.676Z,98438.80
2022-11-22T09:16:57.398Z,98432.19
2022-11-22T09:19:59.212Z,98422.32
2022-11-22T09:23:02.357Z,98422.48
2022-11-22T09:26:09.879Z,98429.48
2022-11-22T09:29:11.683Z,98422.58
2022-11-22T09:32:13.464Z,98405.83
2022-11-22T09:35:17.361Z,98406.48
2022-11-22T09:38:19.465Z,98405.60
2022-11-22T09:41:43.151Z,98414.28
2022-11-22T09:45:19.115Z,98423.83
2022-11-22T09:48:33.302Z,98426.04
2022-11-22T09:51:41.897Z,98426.22
2022-11-22T09:54:57.164Z,98416.36
2022-11-22T09:58:25.306Z,98414.66
2022-11-22T10:01:31.991Z,98418.23
2022-11-22T10:04:37.916Z,98417.27
2022-11-22T10:07:48.220Z,98415.83
2022-11-22T10:10:52.710Z,98413.60
2022-11-22T10:13:59.396Z,98418.73
2022-11-22T10:17:07.081Z,98417.59
2022-11-22T10:20:26.535Z,98407.80
2022-11-22T10:23:28.307Z,98406.12
2022-11-22T10:26:34.324Z,98401.66
2022-11-22T10:29:40.542Z,98396.27
2022-11-22T10:33:09.165Z,98402.52
2022-11-22T10:36:26.126Z,98398.66
2022-11-22T10:39:46.640Z,98394.73
2022-11-22T10:43:07.183Z,98404.35
2022-11-22T10:46:25.889Z,98408.08
2022-11-22T10:49:46.332Z,98406.22
2022-11-22T10:52:54.870Z,98411.23
2022-11-22T10:56:05.547Z,98400.23
2022-11-22T10:59:41.490Z,98391.67
2022-11-22T11:03:18.792Z,98397.04
2022-11-22T11:06:49.441Z,98392.27
2022-11-22T11:13:28.939Z,98392.30
2022-11-22T11:16:34.063Z,98386.26
2022-11-22T11:19:39.297Z,98380.02
2022-11-22T11:26:19.501Z,98372.75
2022-11-22T11:29:24.305Z,98371.69
2022-11-22T11:32:25.972Z,98377.36
2022-11-22T11:35:29.273Z,98380.22
2022-11-22T11:38:32.673Z,98381.84
2022-11-22T11:41:40.275Z,98381.20
2022-11-22T11:44:45.098Z,98382.15
2022-11-22T11:47:46.774Z,98380.41
2022-11-22T11:50:48.452Z,98377.27
2022-11-22T11:54:05.813Z,98378.59
2022-11-22T11:57:23.328Z,98374.91
2022-11-22T12:00:27.176Z,98376.06
2022-11-22T12:03:28.831Z,98370.73
2022-11-22T12:06:32.120Z,98374.75
2022-11-22T12:09:36.960Z,98372.40
2022-11-22T12:12:47.923Z,98365.91
2022-11-22T12:16:14.988Z,98360.96
2022-11-22T12:19:29.358Z,98353.64
2022-11-22T12:22:56.003Z,98352.83
2022-11-22T12:25:58.069Z,98347.70
2022-11-22T12:29:00.477Z,98343.83
2022-11-22T12:32:11.932Z,98342.45
2022-11-22T12:35:17.137Z,98337.50
2022-11-22T12:38:21.813Z,98330.50
2022-11-22T12:41:27.301Z,98325.29
2022-11-22T12:44:33.719Z,98325.17
2022-11-22T12:47:40.885Z,98317.90
2022-11-22T12:50:47.396Z,98309.38
2022-11-22T12:53:49.684Z,98307.06
2022-11-22T12:57:06.567Z,98306.79
2022-11-22T13:00:19.481Z,98305.65
2022-11-22T13:03:32.176Z,98311.02
2022-11-22T13:06:48.256Z,98306.11
2022-11-22T13:09:57.339Z,98299.51
2022-11-22T13:13:00.697Z,98295.64
2022-11-22T13:16:07.110Z,98297.98
2022-11-22T13:19:14.467Z,98296.95
2022-11-22T13:22:50.369Z,98299.88
2022-11-22T13:26:10.316Z,98301.16
2022-11-22T13:29:23.999Z,98301.19
2022-11-22T13:32:30.716Z,98294.25
2022-11-22T13:35:33.649Z,98291.27
2022-11-22T13:38:35.308Z,98291.69
2022-11-22T13:41:48.762Z,98291.36
2022-11-22T13:44:56.313Z,98284.69
2022-11-22T13:47:58.037Z,98285.45
2022-11-22T13:50:59.809Z,98284.55
2022-11-22T13:54:20.377Z,98278.20
2022-11-22T13:57:42.743Z,98278.01
2022-11-22T14:00:44.684Z,98281.27
2022-11-22T14:03:46.452Z,98279.34
2022-11-22T14:06:49.106Z,98278.20
2022-11-22T14:09:50.758Z,98280.71
2022-11-22T14:12:55.895Z,98286.06
2022-11-22T14:16:08.072Z,98290.34
2022-11-22T14:19:18.958Z,98290.77
2022-11-22T14:22:44.996Z,98281.81
2022-11-22T14:25:49.422Z,98288.01
2022-11-22T14:29:28.634Z,98288.80
2022-11-22T14:32:57.608Z,98296.23
2022-11-22T14:36:09.659Z,98295.36
2022-11-22T14:39:47.588Z,98293.20
2022-11-22T14:42:52.084Z,98295.22
2022-11-22T14:45:58.543Z,98294.70
2022-11-22T14:49:14.093Z,98294.11
2022-11-22T14:52:23.285Z,98291.70
2022-11-22T14:55:32.430Z,98296.42
2022-11-22T14:58:38.938Z,98300.65
2022-11-22T15:01:52.462Z,98303.13
2022-11-22T15:09:14.557Z,98318.59
2022-11-22T15:09:16.476Z,98310.21
2022-11-22T15:12:41.257Z,98321.40
2022-11-22T15:58:04.431Z,98337.23
2022-11-22T16:01:18.809Z,98345.31
2022-11-22T16:04:33.923Z,98342.27
2022-11-22T16:07:37.900Z,98338.09
2022-11-22T16:10:42.837Z,98335.55
2022-11-22T16:13:44.634Z,98340.02
2022-11-22T16:16:46.163Z,98334.39
2022-11-22T16:19:47.886Z,98339.83
2022-11-22T16:23:08.608Z,98348.27
2022-11-22T16:26:30.811Z,98347.27
2022-11-22T16:29:33.906Z,98343.70
2022-11-22T16:32:35.929Z,98341.87
2022-11-22T16:35:37.961Z,98340.84
2022-11-22T16:38:39.867Z,98342.57
2022-11-22T16:41:41.775Z,98346.52
2022-11-22T16:44:43.343Z,98356.30
2022-11-22T16:47:54.201Z,98365.10
2022-11-22T16:51:24.282Z,98370.04
2022-11-22T16:54:28.586Z,98371.21
2022-11-22T16:57:30.504Z,98369.60
2022-11-22T17:00:32.438Z,98365.09
2022-11-22T17:03:36.520Z,98364.04
2022-11-22T17:06:38.591Z,98360.88
2022-11-22T17:09:40.621Z,98356.90
2022-11-22T17:12:43.404Z,98361.88
2022-11-22T17:15:45.988Z,98367.38
2022-11-22T17:18:48.421Z,98369.13
2022-11-22T17:21:50.270Z,98364.86
2022-11-22T17:24:51.851Z,98364.45
2022-11-22T17:27:54.307Z,98365.96
2022-11-22T17:30:59.786Z,98370.69
2022-11-22T17:34:01.721Z,98367.79
2022-11-22T17:37:03.523Z,98369.24
2022-11-22T17:40:05.474Z,98368.94
2022-11-22T17:43:07.123Z,98367.00
2022-11-22T17:46:08.939Z,98365.00
2022-11-22T17:49:15.721Z,98361.39
2022-11-22T17:52:18.227Z,98373.45
2022-11-22T17:55:19.872Z,98372.86
2022-11-22T17:58:21.519Z,98366.84
2022-11-22T18:01:23.730Z,98370.40
2022-11-22T18:04:25.414Z,98369.90
2022-11-22T18:07:29.669Z,98378.61
2022-11-22T18:10:31.452Z,98379.70
2022-11-22T18:13:34.071Z,98377.10
2022-11-22T18:16:36.167Z,98380.52
2022-11-22T18:19:41.039Z,98388.23
2022-11-22T18:22:42.732Z,98389.61
2022-11-22T18:25:44.761Z,98395.56
2022-11-22T18:29:02.554Z,98393.08
2022-11-22T18:32:08.648Z,98386.70
2022-11-22T18:35:11.924Z,98391.80
2022-11-22T18:38:13.674Z,98389.33
2022-11-22T18:41:16.766Z,98389.45
2022-11-22T18:44:18.673Z,98384.90
2022-11-22T18:47:20.682Z,98387.48
2022-11-22T18:50:22.260Z,98391.38
2022-11-22T18:53:23.924Z,98393.84
2022-11-22T18:56:26.334Z,98402.23
2022-11-22T18:59:28.148Z,98404.03
2022-11-22T19:02:30.140Z,98398.55
2022-11-22T19:05:31.949Z,98393.08
2022-11-22T19:08:37.623Z,98393.02
2022-11-22T19:11:39.519Z,98385.98
2022-11-22T19:14:41.496Z,98386.86
2022-11-22T19:17:43.214Z,98390.50
2022-11-22T19:20:55.144Z,98393.25
2022-11-22T19:23:57.891Z,98399.49
2022-11-22T19:27:00.036Z,98396.52
2022-11-22T19:30:02.524Z,98402.95
2022-11-22T19:33:04.286Z,98407.39
2022-11-22T19:36:16.049Z,98406.39
2022-11-22T19:39:20.030Z,98401.89
2022-11-22T19:42:21.677Z,98403.38
2022-11-22T19:45:23.305Z,98404.48
2022-11-22T19:48:24.991Z,98399.75
2022-11-22T19:51:28.671Z,98402.52
2022-11-22T19:54:31.178Z,98400.17
2022-11-22T19:57:32.928Z,98400.40
2022-11-22T20:00:34.640Z,98404.29
2022-11-22T20:03:38.529Z,98404.30
2022-11-22T20:06:40.448Z,98406.13
2022-11-22T20:09:42.177Z,98408.78
2022-11-22T20:12:44.191Z,98412.70
2022-11-22T20:15:46.074Z,98414.16
2022-11-22T20:18:48.661Z,98415.50
2022-11-22T20:21:53.009Z,98417.25
2022-11-22T20:24:54.653Z,98411.63
2022-11-22T20:27:56.333Z,98413.05
2022-11-22T20:31:05.445Z,98409.98
2022-11-22T20:34:09.756Z,98414.15
2022-11-22T20:37:11.408Z,98412.85
2022-11-22T20:40:13.058Z,98409.06
2022-11-22T20:43:14.654Z,98406.70
2022-11-22T20:46:24.999Z,98406.80
2022-11-22T20:49:30.846Z,98403.10
2022-11-22T20:52:32.529Z,98403.36
2022-11-22T20:55:34.216Z,98414.47
2022-11-22T20:58:36.383Z,98416.97
2022-11-22T21:01:38.516Z,98417.90
2022-11-22T21:04:40.338Z,98417.73
2022-11-22T21:07:42.037Z,98417.08
2022-11-22T21:10:43.763Z,98419.55
2022-11-22T21:13:45.540Z,98424.08
2022-11-22T21:16:47.370Z,98423.95
2022-11-22T21:19:48.905Z,98430.32
2022-11-22T21:22:54.366Z,98431.84
2022-11-22T21:25:56.291Z,98428.42
2022-11-22T21:28:59.541Z,98423.55
2022-11-22T21:32:01.255Z,98423.48
2022-11-22T21:35:02.916Z,98419.33
2022-11-22T21:38:04.566Z,98418.39
2022-11-22T21:41:38.217Z,98420.23
2022-11-22T21:44:34.106Z,98427.94
2022-11-22T21:47:35.855Z,98433.18
2022-11-22T21:50:37.720Z,98431.27
2022-11-22T21:53:39.422Z,98423.77
2022-11-22T21:56:41.095Z,98428.41
2022-11-22T21:59:42.799Z,98432.50
2022-11-22T22:02:46.516Z,98431.45
2022-11-22T22:05:49.548Z,98429.16
2022-11-22T22:08:51.278Z,98426.30
2022-11-22T22:11:53.130Z,98428.52
2022-11-22T22:14:54.932Z,98420.07
2022-11-22T22:17:56.775Z,98420.00
2022-11-22T22:21:02.154Z,98420.56
2022-11-22T22:24:04.103Z,98419.34
2022-11-22T22:27:06.025Z,98421.59
2022-11-22T22:30:08.970Z,98418.68
2022-11-22T22:33:10.875Z,98414.65
2022-11-22T22:36:13.211Z,98417.61
2022-11-22T22:39:14.923Z,98423.30
2022-11-22T22:42:16.516Z,98426.91
2022-11-22T22:45:18.162Z,98427.77
2022-11-22T22:48:20.578Z,98427.51
2022-11-22T22:51:33.197Z,98425.98
2022-11-22T22:54:36.000Z,98421.27
2022-11-22T22:57:37.689Z,98423.53
2022-11-22T23:00:39.369Z,98420.92
2022-11-22T23:03:41.147Z,98419.31
2022-11-22T23:06:43.973Z,98426.71
2022-11-22T23:09:45.892Z,98421.89
2022-11-22T23:12:47.670Z,98422.44
2022-11-22T23:15:58.290Z,98421.70
2022-11-22T23:19:00.447Z,98427.27
2022-11-22T23:22:03.271Z,98430.98
2022-11-22T23:25:06.494Z,98428.73
2022-11-22T23:28:08.471Z,98431.70
2022-11-22T23:31:13.615Z,98429.55
2022-11-22T23:34:15.358Z,98437.27
2022-11-22T23:37:17.104Z,98432.35
2022-11-22T23:40:18.839Z,98423.98
2022-11-22T23:43:20.542Z,98415.95
2022-11-22T23:46:25.139Z,98418.85
2022-11-22T23:49:26.926Z,98411.58
2022-11-22T23:52:28.556Z,98414.11
2022-11-22T23:55:30.232Z,98408.96
2022-11-22T23:58:32.116Z,98407.83
